»·PEaware :: N148WT KSNA-KTOA

N148WT :: KSNA-KTOA

FLIGHT INFORMATION

Flight Status: Arrived
Operator: Privately registered:
United States
More flights under this callsign
Pilot: Vlad D. (11271)
Aircraft: Unknown
(B60T)
More flights by this aircraft type
Origin: KSNA John Wayne-Orange Co
United States
Destination: KTOA Zamperini
United States
More flights between these airports :: More routes between these airports
Route: +
File this flight plan on PilotEdge
Remarks:
Altitude:
(Current/Filed)
0ft
Speed:
(Current/Filed)
0kts
Departed: 11-May-16 07:49 PM
Arrived: 11-May-16 08:39 PM
Distance/Time
Traveled:
25nm/0:50
Distance/Time
To Go:
Arrived

Flight Plot

Page will automatically refresh every two minutes.


Map Options




Map Legend


Flown Route
Filed Route
Departure Airport
Arrival Airport
Navaid (VOR, NDB)
Fix

Horizontal Profiles

Position Reports

Time Latitude Longitude Heading Altitude Ground
Speed
11-May-16 19:24 33.674697 -117.871713 219 59ft 0kts
11-May-16 19:25 33.674695 -117.871715 219 59ft 0kts
11-May-16 19:26 33.674693 -117.871717 219 59ft 0kts
11-May-16 19:27 33.674690 -117.871719 219 59ft 0kts
11-May-16 19:28 33.674688 -117.871722 219 59ft 0kts
11-May-16 19:29 33.674686 -117.871724 219 59ft 0kts
11-May-16 19:30 33.674683 -117.871726 219 59ft 0kts
11-May-16 19:31 33.674968 -117.870841 28 59ft 8kts
11-May-16 19:32 33.676892 -117.869071 30 59ft 8kts
11-May-16 19:33 33.677304 -117.868825 26 59ft 0kts
11-May-16 19:34 33.677304 -117.868825 26 59ft 0kts
11-May-16 19:35 33.677304 -117.868825 26 59ft 0kts
11-May-16 19:36 33.677304 -117.868825 26 59ft 0kts
11-May-16 19:37 33.677308 -117.868822 26 59ft 0kts
11-May-16 19:38 33.677310 -117.868821 26 59ft 0kts
11-May-16 19:39 33.677377 -117.868806 357 59ft 3kts
11-May-16 19:40 33.680337 -117.867541 26 59ft 9kts
11-May-16 19:41 33.681667 -117.866647 213 59ft 5kts
11-May-16 19:42 33.680821 -117.866425 116 59ft 0kts
11-May-16 19:43 33.680820 -117.866422 116 59ft 0kts
11-May-16 19:44 33.680819 -117.866419 116 59ft 0kts
11-May-16 19:45 33.680818 -117.866416 116 59ft 0kts
11-May-16 19:46 33.680816 -117.866413 116 59ft 0kts
11-May-16 19:47 33.680207 -117.865964 208 59ft 11kts
11-May-16 19:48 33.648540 -117.878351 174 1190ft 160kts
11-May-16 19:49 33.603396 -117.886039 190 2716ft 165kts
11-May-16 19:50 33.557542 -117.897129 199 4226ft 170kts
11-May-16 19:51 33.545568 -117.936608 316 4562ft 146kts
11-May-16 19:52 33.569812 -117.974495 290 4501ft 140kts
11-May-16 19:53 33.576141 -118.019837 272 4503ft 136kts
11-May-16 19:54 33.575060 -118.065177 268 4506ft 135kts
11-May-16 19:55 33.599896 -118.094805 332 4506ft 135kts
11-May-16 19:56 33.627589 -118.121414 315 5100ft 118kts
11-May-16 19:57 33.656212 -118.153289 323 6479ft 147kts
11-May-16 19:58 33.686507 -118.184100 316 6508ft 143kts
11-May-16 19:59 33.715666 -118.217179 321 6504ft 144kts
11-May-16 20:00 33.750970 -118.238887 338 6499ft 144kts
11-May-16 20:01 33.782806 -118.268184 317 6500ft 144kts
11-May-16 20:02 33.807787 -118.296001 317 6501ft 144kts
11-May-16 20:03 33.837719 -118.328615 318 6501ft 144kts
11-May-16 20:04 33.867719 -118.361141 318 6502ft 144kts
11-May-16 20:05 33.897757 -118.393670 318 6501ft 144kts
11-May-16 20:06 33.928791 -118.427291 318 6511ft 145kts
11-May-16 20:07 33.964440 -118.445478 352 6513ft 143kts
11-May-16 20:08 33.999555 -118.463867 330 6525ft 143kts
11-May-16 20:09 34.036600 -118.482568 338 6511ft 144kts
11-May-16 20:10 34.073972 -118.500717 339 6509ft 144kts
11-May-16 20:11 34.114626 -118.520426 338 5639ft 171kts
11-May-16 20:12 34.158636 -118.545339 322 4361ft 176kts
11-May-16 20:13 34.184836 -118.592578 295 3509ft 160kts
11-May-16 20:14 34.201170 -118.638295 291 3494ft 138kts
11-May-16 20:15 34.213878 -118.680915 289 3500ft 132kts
11-May-16 20:16 34.227740 -118.720239 339 3507ft 128kts
11-May-16 20:17 34.226353 -118.713142 279 3268ft 138kts
11-May-16 20:18 34.228429 -118.703847 197 3398ft 115kts
11-May-16 20:19 34.199843 -118.723211 197 3516ft 129kts
11-May-16 20:20 34.164106 -118.731674 149 3506ft 136kts
11-May-16 20:21 34.146366 -118.691971 111 3505ft 137kts
11-May-16 20:22 34.128493 -118.651228 121 3503ft 136kts
11-May-16 20:23 34.107365 -118.613199 122 3502ft 136kts
11-May-16 20:24 34.086375 -118.574981 124 3504ft 136kts
11-May-16 20:25 34.060921 -118.541037 136 3507ft 136kts
11-May-16 20:26 34.032207 -118.510952 138 3510ft 136kts
11-May-16 20:27 34.012288 -118.472650 111 3512ft 136kts
11-May-16 20:28 33.993669 -118.427230 155 2643ft 168kts
11-May-16 20:29 33.954336 -118.437882 168 2512ft 147kts
11-May-16 20:30 33.926243 -118.408844 121 2510ft 134kts
11-May-16 20:31 33.907239 -118.370477 119 2511ft 132kts
11-May-16 20:32 33.888072 -118.332720 123 2511ft 131kts
11-May-16 20:33 33.860506 -118.304826 166 2507ft 131kts
11-May-16 20:34 33.825508 -118.321201 206 1811ft 133kts
11-May-16 20:35 33.803380 -118.305022 121 1536ft 109kts
11-May-16 20:36 33.783490 -118.306656 288 934ft 103kts
11-May-16 20:37 33.799385 -118.332529 304 166ft 85kts
11-May-16 20:38 33.805595 -118.342798 289 106ft 17kts
11-May-16 20:39 33.806042 -118.344357 286 106ft 2kts
11-May-16 20:40 33.805263 -118.345686 217 106ft 10kts
11-May-16 20:41 33.803724 -118.344287 127 106ft 8kts
11-May-16 20:42 33.803293 -118.344083 215 106ft 0kts
11-May-16 20:43 33.803289 -118.344086 215 106ft 0kts
11-May-16 20:44 33.803286 -118.344089 215 106ft 0kts
11-May-16 20:45 33.803284 -118.344090 215 106ft 0kts

Navigation Log

Ident Type
Flight plan parsing failed, navigation log unavailable